sensor_id;sensor_type;location;lat;lon;timestamp;temperature;humidity
46117;DHT22;32591;48.102;11.772;2023-04-03T00:00:38;3.10;99.90
46117;DHT22;32591;48.102;11.772;2023-04-03T00:03:05;3.20;99.90
46117;DHT22;32591;48.102;11.772;2023-04-03T00:05:33;3.10;99.90
46117;DHT22;32591;48.102;11.772;2023-04-03T00:08:00;3.10;99.90
46117;DHT22;32591;48.102;11.772;2023-04-03T00:10:27;3.10;99.90
46117;DHT22;32591;48.102;11.772;2023-04-03T00:12:55;3.10;99.90
46117;DHT22;32591;48.102;11.772;2023-04-03T00:15:22;3.10;99.90
46117;DHT22;32591;48.102;11.772;2023-04-03T00:17:50;3.20;99.90
46117;DHT22;32591;48.102;11.772;2023-04-03T00:20:17;3.20;99.90
46117;DHT22;32591;48.102;11.772;2023-04-03T00:22:45;3.10;99.90
46117;DHT22;32591;48.102;11.772;2023-04-03T00:25:12;3.20;99.90
46117;DHT22;32591;48.102;11.772;2023-04-03T00:27:39;3.20;99.90
46117;DHT22;32591;48.102;11.772;2023-04-03T00:30:09;3.20;99.90
46117;DHT22;32591;48.102;11.772;2023-04-03T00:32:38;3.20;99.90
46117;DHT22;32591;48.102;11.772;2023-04-03T00:35:07;3.30;99.90
46117;DHT22;32591;48.102;11.772;2023-04-03T00:37:35;3.30;99.90
46117;DHT22;32591;48.102;11.772;2023-04-03T00:40:03;3.30;99.90
46117;DHT22;32591;48.102;11.772;2023-04-03T00:42:31;3.30;99.90
46117;DHT22;32591;48.102;11.772;2023-04-03T00:45:23;3.30;99.90
46117;DHT22;32591;48.102;11.772;2023-04-03T00:47:57;3.30;99.90
46117;DHT22;32591;48.102;11.772;2023-04-03T00:50:28;3.20;99.90
46117;DHT22;32591;48.102;11.772;2023-04-03T00:52:56;3.20;99.90
46117;DHT22;32591;48.102;11.772;2023-04-03T00:55:24;3.20;99.90
46117;DHT22;32591;48.102;11.772;2023-04-03T00:57:53;3.20;99.90
46117;DHT22;32591;48.102;11.772;2023-04-03T01:00:22;3.30;99.90
46117;DHT22;32591;48.102;11.772;2023-04-03T01:02:50;3.30;99.90
46117;DHT22;32591;48.102;11.772;2023-04-03T01:05:19;3.40;99.90
46117;DHT22;32591;48.102;11.772;2023-04-03T01:07:49;3.40;99.90
46117;DHT22;32591;48.102;11.772;2023-04-03T01:10:18;3.30;99.90
46117;DHT22;32591;48.102;11.772;2023-04-03T01:12:47;3.30;99.90
46117;DHT22;32591;48.102;11.772;2023-04-03T01:15:17;3.30;99.90
46117;DHT22;32591;48.102;11.772;2023-04-03T01:17:46;3.20;99.90
46117;DHT22;32591;48.102;11.772;2023-04-03T01:23:48;3.20;99.90
46117;DHT22;32591;48.102;11.772;2023-04-03T01:26:21;3.20;99.90
46117;DHT22;32591;48.102;11.772;2023-04-03T01:28:47;3.10;99.90
46117;DHT22;32591;48.102;11.772;2023-04-03T01:31:20;3.20;99.90
46117;DHT22;32591;48.102;11.772;2023-04-03T01:33:52;3.20;99.90
46117;DHT22;32591;48.102;11.772;2023-04-03T01:36:21;3.20;99.90
46117;DHT22;32591;48.102;11.772;2023-04-03T01:38:49;3.20;99.90
46117;DHT22;32591;48.102;11.772;2023-04-03T01:41:17;3.20;99.90
46117;DHT22;32591;48.102;11.772;2023-04-03T01:43:46;3.20;99.90
46117;DHT22;32591;48.102;11.772;2023-04-03T01:46:13;3.20;99.90
46117;DHT22;32591;48.102;11.772;2023-04-03T01:48:40;3.20;99.90
46117;DHT22;32591;48.102;11.772;2023-04-03T01:51:09;3.20;99.90
46117;DHT22;32591;48.102;11.772;2023-04-03T01:53:37;3.20;99.90
46117;DHT22;32591;48.102;11.772;2023-04-03T01:56:04;3.30;99.90
46117;DHT22;32591;48.102;11.772;2023-04-03T01:58:32;3.40;99.90
46117;DHT22;32591;48.102;11.772;2023-04-03T02:00:59;3.50;99.90
46117;DHT22;32591;48.102;11.772;2023-04-03T02:03:27;3.50;99.90
46117;DHT22;32591;48.102;11.772;2023-04-03T02:05:54;3.50;99.90
46117;DHT22;32591;48.102;11.772;2023-04-03T02:08:23;3.50;99.90
46117;DHT22;32591;48.102;11.772;2023-04-03T02:10:50;3.50;99.90
46117;DHT22;32591;48.102;11.772;2023-04-03T02:13:18;3.50;99.90
46117;DHT22;32591;48.102;11.772;2023-04-03T02:15:45;3.60;99.90
46117;DHT22;32591;48.102;11.772;2023-04-03T02:18:15;3.60;99.90
46117;DHT22;32591;48.102;11.772;2023-04-03T02:20:42;3.60;99.90
46117;DHT22;32591;48.102;11.772;2023-04-03T02:23:09;3.50;99.90
46117;DHT22;32591;48.102;11.772;2023-04-03T02:25:37;3.50;99.90
46117;DHT22;32591;48.102;11.772;2023-04-03T02:28:05;3.50;99.90
46117;DHT22;32591;48.102;11.772;2023-04-03T02:30:32;3.50;99.90
46117;DHT22;32591;48.102;11.772;2023-04-03T02:32:59;3.50;99.90
46117;DHT22;32591;48.102;11.772;2023-04-03T02:35:26;3.40;99.90
46117;DHT22;32591;48.102;11.772;2023-04-03T02:37:53;3.40;99.90
46117;DHT22;32591;48.102;11.772;2023-04-03T02:40:21;3.40;99.90
46117;DHT22;32591;48.102;11.772;2023-04-03T02:42:49;3.40;99.90
46117;DHT22;32591;48.102;11.772;2023-04-03T02:45:16;3.30;99.90
46117;DHT22;32591;48.102;11.772;2023-04-03T02:47:43;3.40;99.90
46117;DHT22;32591;48.102;11.772;2023-04-03T02:50:10;3.40;99.90
46117;DHT22;32591;48.102;11.772;2023-04-03T02:52:37;3.40;99.90
46117;DHT22;32591;48.102;11.772;2023-04-03T02:55:04;3.50;99.90
46117;DHT22;32591;48.102;11.772;2023-04-03T02:57:32;3.50;99.90
46117;DHT22;32591;48.102;11.772;2023-04-03T03:00:00;3.40;99.90
46117;DHT22;32591;48.102;11.772;2023-04-03T03:02:27;3.40;99.90
46117;DHT22;32591;48.102;11.772;2023-04-03T03:04:54;3.40;99.90
46117;DHT22;32591;48.102;11.772;2023-04-03T03:07:21;3.40;99.90
46117;DHT22;32591;48.102;11.772;2023-04-03T03:09:48;3.40;99.90
46117;DHT22;32591;48.102;11.772;2023-04-03T03:12:15;3.40;99.90
46117;DHT22;32591;48.102;11.772;2023-04-03T03:14:46;3.50;99.90
46117;DHT22;32591;48.102;11.772;2023-04-03T03:17:16;3.60;99.90
46117;DHT22;32591;48.102;11.772;2023-04-03T03:19:44;3.60;99.90
46117;DHT22;32591;48.102;11.772;2023-04-03T03:22:12;3.60;99.90
46117;DHT22;32591;48.102;11.772;2023-04-03T03:24:39;3.70;99.90
46117;DHT22;32591;48.102;11.772;2023-04-03T03:27:06;3.70;99.90
46117;DHT22;32591;48.102;11.772;2023-04-03T03:29:33;3.70;99.90
46117;DHT22;32591;48.102;11.772;2023-04-03T03:32:00;3.70;99.90
46117;DHT22;32591;48.102;11.772;2023-04-03T03:34:28;3.80;99.90
46117;DHT22;32591;48.102;11.772;2023-04-03T03:36:55;3.80;99.90
46117;DHT22;32591;48.102;11.772;2023-04-03T03:39:22;3.90;99.90
46117;DHT22;32591;48.102;11.772;2023-04-03T03:41:49;3.80;99.90
46117;DHT22;32591;48.102;11.772;2023-04-03T03:44:16;3.80;99.90
46117;DHT22;32591;48.102;11.772;2023-04-03T03:46:42;3.70;99.90
46117;DHT22;32591;48.102;11.772;2023-04-03T03:49:09;3.80;99.90
46117;DHT22;32591;48.102;11.772;2023-04-03T03:51:38;3.80;99.90
46117;DHT22;32591;48.102;11.772;2023-04-03T03:54:06;3.80;99.90
46117;DHT22;32591;48.102;11.772;2023-04-03T03:56:33;3.80;99.90
46117;DHT22;32591;48.102;11.772;2023-04-03T03:59:00;3.80;99.90
46117;DHT22;32591;48.102;11.772;2023-04-03T04:01:28;3.70;99.90
46117;DHT22;32591;48.102;11.772;2023-04-03T04:03:55;3.70;99.90
46117;DHT22;32591;48.102;11.772;2023-04-03T04:06:22;3.60;99.90
46117;DHT22;32591;48.102;11.772;2023-04-03T04:08:50;3.60;99.90
46117;DHT22;32591;48.102;11.772;2023-04-03T04:11:17;3.50;99.90
46117;DHT22;32591;48.102;11.772;2023-04-03T04:13:45;3.50;99.90
46117;DHT22;32591;48.102;11.772;2023-04-03T04:16:12;3.60;99.90
46117;DHT22;32591;48.102;11.772;2023-04-03T04:18:39;3.70;99.90
46117;DHT22;32591;48.102;11.772;2023-04-03T04:21:06;3.70;99.90
46117;DHT22;32591;48.102;11.772;2023-04-03T04:23:33;3.70;99.90
46117;DHT22;32591;48.102;11.772;2023-04-03T04:26:01;3.80;99.90
46117;DHT22;32591;48.102;11.772;2023-04-03T04:28:28;3.80;99.90
46117;DHT22;32591;48.102;11.772;2023-04-03T04:30:55;3.80;99.90
46117;DHT22;32591;48.102;11.772;2023-04-03T04:33:22;3.80;99.90
46117;DHT22;32591;48.102;11.772;2023-04-03T04:35:49;3.80;99.90
46117;DHT22;32591;48.102;11.772;2023-04-03T04:38:17;3.70;99.90
46117;DHT22;32591;48.102;11.772;2023-04-03T04:40:44;3.60;99.90
46117;DHT22;32591;48.102;11.772;2023-04-03T04:43:12;3.60;99.90
46117;DHT22;32591;48.102;11.772;2023-04-03T04:45:40;3.60;99.90
46117;DHT22;32591;48.102;11.772;2023-04-03T04:48:07;3.50;99.90
46117;DHT22;32591;48.102;11.772;2023-04-03T04:50:34;3.40;99.90
46117;DHT22;32591;48.102;11.772;2023-04-03T04:53:01;3.40;99.90
46117;DHT22;32591;48.102;11.772;2023-04-03T04:55:28;3.40;99.90
46117;DHT22;32591;48.102;11.772;2023-04-03T04:57:55;3.40;99.90
46117;DHT22;32591;48.102;11.772;2023-04-03T05:00:23;3.30;99.90
46117;DHT22;32591;48.102;11.772;2023-04-03T05:02:50;3.30;99.90
46117;DHT22;32591;48.102;11.772;2023-04-03T05:05:17;3.40;99.90
46117;DHT22;32591;48.102;11.772;2023-04-03T05:07:44;3.30;99.90
46117;DHT22;32591;48.102;11.772;2023-04-03T05:10:11;3.30;99.90
46117;DHT22;32591;48.102;11.772;2023-04-03T05:12:37;3.20;99.90
46117;DHT22;32591;48.102;11.772;2023-04-03T05:15:06;3.20;99.90
46117;DHT22;32591;48.102;11.772;2023-04-03T05:17:35;3.20;99.90
46117;DHT22;32591;48.102;11.772;2023-04-03T05:20:02;3.10;99.90
46117;DHT22;32591;48.102;11.772;2023-04-03T05:22:30;3.20;99.90
46117;DHT22;32591;48.102;11.772;2023-04-03T05:24:57;3.20;99.90
46117;DHT22;32591;48.102;11.772;2023-04-03T05:27:24;3.30;99.90
46117;DHT22;32591;48.102;11.772;2023-04-03T05:29:53;3.30;99.90
46117;DHT22;32591;48.102;11.772;2023-04-03T05:32:21;3.30;99.90
46117;DHT22;32591;48.102;11.772;2023-04-03T05:34:49;3.30;99.90
46117;DHT22;32591;48.102;11.772;2023-04-03T05:37:16;3.30;99.90
46117;DHT22;32591;48.102;11.772;2023-04-03T05:39:43;3.30;99.90
46117;DHT22;32591;48.102;11.772;2023-04-03T05:42:10;3.30;99.90
46117;DHT22;32591;48.102;11.772;2023-04-03T05:44:38;3.30;99.90
46117;DHT22;32591;48.102;11.772;2023-04-03T05:47:05;3.40;99.90
46117;DHT22;32591;48.102;11.772;2023-04-03T05:49:32;3.30;99.90
46117;DHT22;32591;48.102;11.772;2023-04-03T05:52:00;3.50;99.90
46117;DHT22;32591;48.102;11.772;2023-04-03T05:54:29;3.50;99.90
46117;DHT22;32591;48.102;11.772;2023-04-03T05:56:56;3.40;99.90
46117;DHT22;32591;48.102;11.772;2023-04-03T05:59:23;3.40;99.90
46117;DHT22;32591;48.102;11.772;2023-04-03T06:01:50;3.40;99.90
46117;DHT22;32591;48.102;11.772;2023-04-03T06:04:17;3.40;99.90
46117;DHT22;32591;48.102;11.772;2023-04-03T06:06:48;3.40;99.90
46117;DHT22;32591;48.102;11.772;2023-04-03T06:09:20;3.40;99.90
46117;DHT22;32591;48.102;11.772;2023-04-03T06:11:48;3.30;99.90
46117;DHT22;32591;48.102;11.772;2023-04-03T06:14:15;3.30;99.90
46117;DHT22;32591;48.102;11.772;2023-04-03T06:16:43;3.30;99.90
46117;DHT22;32591;48.102;11.772;2023-04-03T06:19:10;3.40;99.90
46117;DHT22;32591;48.102;11.772;2023-04-03T06:21:38;3.40;99.90
46117;DHT22;32591;48.102;11.772;2023-04-03T06:24:06;3.50;99.90
46117;DHT22;32591;48.102;11.772;2023-04-03T06:26:34;3.40;99.90
46117;DHT22;32591;48.102;11.772;2023-04-03T06:29:01;3.50;99.90
46117;DHT22;32591;48.102;11.772;2023-04-03T06:31:29;3.60;99.90
46117;DHT22;32591;48.102;11.772;2023-04-03T06:33:56;3.60;99.90
46117;DHT22;32591;48.102;11.772;2023-04-03T06:36:23;3.60;99.90
46117;DHT22;32591;48.102;11.772;2023-04-03T06:38:50;3.70;99.90
46117;DHT22;32591;48.102;11.772;2023-04-03T06:41:17;3.70;99.90
46117;DHT22;32591;48.102;11.772;2023-04-03T06:43:45;3.70;99.90
46117;DHT22;32591;48.102;11.772;2023-04-03T06:46:14;3.70;99.90
46117;DHT22;32591;48.102;11.772;2023-04-03T06:48:42;3.70;99.90
46117;DHT22;32591;48.102;11.772;2023-04-03T06:51:17;3.70;99.90
46117;DHT22;32591;48.102;11.772;2023-04-03T06:53:46;3.60;99.90
46117;DHT22;32591;48.102;11.772;2023-04-03T06:56:13;3.60;99.90
46117;DHT22;32591;48.102;11.772;2023-04-03T06:58:41;3.60;99.90
46117;DHT22;32591;48.102;11.772;2023-04-03T07:01:10;3.60;99.90
46117;DHT22;32591;48.102;11.772;2023-04-03T07:03:38;3.60;99.90
46117;DHT22;32591;48.102;11.772;2023-04-03T07:06:06;3.70;99.90
46117;DHT22;32591;48.102;11.772;2023-04-03T07:08:34;3.80;99.90
46117;DHT22;32591;48.102;11.772;2023-04-03T07:11:01;3.80;99.90
46117;DHT22;32591;48.102;11.772;2023-04-03T07:13:28;3.90;99.90
46117;DHT22;32591;48.102;11.772;2023-04-03T07:15:55;4.00;99.90
46117;DHT22;32591;48.102;11.772;2023-04-03T07:18:23;4.00;99.90
46117;DHT22;32591;48.102;11.772;2023-04-03T07:20:50;3.90;99.90
46117;DHT22;32591;48.102;11.772;2023-04-03T07:23:18;3.90;99.90
46117;DHT22;32591;48.102;11.772;2023-04-03T07:25:46;3.80;99.90
46117;DHT22;32591;48.102;11.772;2023-04-03T07:28:15;3.80;99.90
46117;DHT22;32591;48.102;11.772;2023-04-03T07:30:44;3.90;99.90
46117;DHT22;32591;48.102;11.772;2023-04-03T07:33:12;3.90;99.90
46117;DHT22;32591;48.102;11.772;2023-04-03T07:35:41;3.80;99.90
46117;DHT22;32591;48.102;11.772;2023-04-03T07:38:09;3.80;99.90
46117;DHT22;32591;48.102;11.772;2023-04-03T07:40:37;4.00;99.90
46117;DHT22;32591;48.102;11.772;2023-04-03T07:43:05;3.80;99.90
46117;DHT22;32591;48.102;11.772;2023-04-03T07:45:34;3.80;99.90
46117;DHT22;32591;48.102;11.772;2023-04-03T07:48:02;3.90;99.90
46117;DHT22;32591;48.102;11.772;2023-04-03T07:50:29;4.00;99.90
46117;DHT22;32591;48.102;11.772;2023-04-03T07:52:59;4.00;99.90
46117;DHT22;32591;48.102;11.772;2023-04-03T07:55:26;4.00;99.90
46117;DHT22;32591;48.102;11.772;2023-04-03T07:57:53;3.90;99.90
46117;DHT22;32591;48.102;11.772;2023-04-03T08:00:20;3.90;99.90
46117;DHT22;32591;48.102;11.772;2023-04-03T08:02:48;3.90;99.90
46117;DHT22;32591;48.102;11.772;2023-04-03T08:05:17;4.00;99.90
46117;DHT22;32591;48.102;11.772;2023-04-03T08:07:44;4.00;99.90
46117;DHT22;32591;48.102;11.772;2023-04-03T08:10:13;4.10;99.90
46117;DHT22;32591;48.102;11.772;2023-04-03T08:12:41;4.10;99.90
46117;DHT22;32591;48.102;11.772;2023-04-03T08:15:08;4.20;99.90
46117;DHT22;32591;48.102;11.772;2023-04-03T08:17:36;4.10;99.90
46117;DHT22;32591;48.102;11.772;2023-04-03T08:20:05;4.20;99.90
46117;DHT22;32591;48.102;11.772;2023-04-03T08:22:34;4.10;99.90
46117;DHT22;32591;48.102;11.772;2023-04-03T08:25:01;4.20;99.90
46117;DHT22;32591;48.102;11.772;2023-04-03T08:27:29;4.20;99.90
46117;DHT22;32591;48.102;11.772;2023-04-03T08:29:56;4.20;99.90
46117;DHT22;32591;48.102;11.772;2023-04-03T08:32:24;4.20;99.90
46117;DHT22;32591;48.102;11.772;2023-04-03T08:34:51;4.20;99.90
46117;DHT22;32591;48.102;11.772;2023-04-03T08:37:18;4.30;99.90
46117;DHT22;32591;48.102;11.772;2023-04-03T08:39:45;4.40;99.90
46117;DHT22;32591;48.102;11.772;2023-04-03T08:42:16;4.40;99.90
46117;DHT22;32591;48.102;11.772;2023-04-03T08:44:52;4.80;99.90
46117;DHT22;32591;48.102;11.772;2023-04-03T08:47:26;4.60;99.90
46117;DHT22;32591;48.102;11.772;2023-04-03T08:49:59;4.70;99.90
46117;DHT22;32591;48.102;11.772;2023-04-03T08:52:37;4.80;99.90
46117;DHT22;32591;48.102;11.772;2023-04-03T08:55:16;4.90;99.90
46117;DHT22;32591;48.102;11.772;2023-04-03T08:57:53;4.90;99.90
46117;DHT22;32591;48.102;11.772;2023-04-03T09:00:28;4.90;99.90
46117;DHT22;32591;48.102;11.772;2023-04-03T09:02:57;5.00;99.90
46117;DHT22;32591;48.102;11.772;2023-04-03T09:05:32;5.00;99.90
46117;DHT22;32591;48.102;11.772;2023-04-03T09:08:11;5.10;99.90
46117;DHT22;32591;48.102;11.772;2023-04-03T09:10:41;5.10;99.90
46117;DHT22;32591;48.102;11.772;2023-04-03T09:13:13;5.10;99.90
46117;DHT22;32591;48.102;11.772;2023-04-03T09:15:48;5.00;99.90
46117;DHT22;32591;48.102;11.772;2023-04-03T09:18:20;5.00;99.90
46117;DHT22;32591;48.102;11.772;2023-04-03T09:20:56;5.00;99.90
46117;DHT22;32591;48.102;11.772;2023-04-03T09:23:30;5.00;99.90
46117;DHT22;32591;48.102;11.772;2023-04-03T09:26:04;5.00;99.90
46117;DHT22;32591;48.102;11.772;2023-04-03T09:28:37;5.00;99.90
46117;DHT22;32591;48.102;11.772;2023-04-03T09:31:18;5.00;99.90
46117;DHT22;32591;48.102;11.772;2023-04-03T09:33:49;5.00;99.90
46117;DHT22;32591;48.102;11.772;2023-04-03T09:36:39;5.00;99.90
46117;DHT22;32591;48.102;11.772;2023-04-03T09:39:11;4.90;99.90
46117;DHT22;32591;48.102;11.772;2023-04-03T09:41:41;4.80;99.90
46117;DHT22;32591;48.102;11.772;2023-04-03T09:44:21;4.80;99.90
46117;DHT22;32591;48.102;11.772;2023-04-03T09:46:51;4.80;99.90
46117;DHT22;32591;48.102;11.772;2023-04-03T09:49:18;4.80;99.90
46117;DHT22;32591;48.102;11.772;2023-04-03T09:51:46;4.80;99.90
46117;DHT22;32591;48.102;11.772;2023-04-03T09:54:35;5.00;99.90
46117;DHT22;32591;48.102;11.772;2023-04-03T09:57:08;5.10;99.90
46117;DHT22;32591;48.102;11.772;2023-04-03T09:59:41;5.20;99.90
46117;DHT22;32591;48.102;11.772;2023-04-03T10:02:28;5.30;99.90
46117;DHT22;32591;48.102;11.772;2023-04-03T10:04:59;5.50;99.90
46117;DHT22;32591;48.102;11.772;2023-04-03T10:07:29;5.70;99.90
46117;DHT22;32591;48.102;11.772;2023-04-03T10:09:59;5.80;99.90
46117;DHT22;32591;48.102;11.772;2023-04-03T10:12:27;5.70;99.90
46117;DHT22;32591;48.102;11.772;2023-04-03T10:14:55;5.80;99.90
46117;DHT22;32591;48.102;11.772;2023-04-03T10:17:32;5.80;99.90
46117;DHT22;32591;48.102;11.772;2023-04-03T10:20:26;5.80;99.90
46117;DHT22;32591;48.102;11.772;2023-04-03T10:23:15;5.70;99.90
46117;DHT22;32591;48.102;11.772;2023-04-03T10:25:55;5.70;99.90
46117;DHT22;32591;48.102;11.772;2023-04-03T10:28:31;5.60;99.90
46117;DHT22;32591;48.102;11.772;2023-04-03T10:31:08;5.60;99.90
46117;DHT22;32591;48.102;11.772;2023-04-03T10:33:54;5.60;99.90
46117;DHT22;32591;48.102;11.772;2023-04-03T10:36:31;5.50;99.90
46117;DHT22;32591;48.102;11.772;2023-04-03T10:39:11;5.40;99.90
46117;DHT22;32591;48.102;11.772;2023-04-03T10:41:54;5.10;99.90
46117;DHT22;32591;48.102;11.772;2023-04-03T10:44:31;5.00;99.90
46117;DHT22;32591;48.102;11.772;2023-04-03T10:47:05;4.80;99.90
46117;DHT22;32591;48.102;11.772;2023-04-03T10:49:46;4.70;99.90
46117;DHT22;32591;48.102;11.772;2023-04-03T10:52:21;4.40;99.90
46117;DHT22;32591;48.102;11.772;2023-04-03T10:54:56;4.30;99.90
46117;DHT22;32591;48.102;11.772;2023-04-03T10:57:29;4.40;99.90
46117;DHT22;32591;48.102;11.772;2023-04-03T10:59:59;4.30;99.90
46117;DHT22;32591;48.102;11.772;2023-04-03T11:02:32;4.30;99.90
46117;DHT22;32591;48.102;11.772;2023-04-03T11:05:07;4.30;99.90
46117;DHT22;32591;48.102;11.772;2023-04-03T11:07:43;4.30;99.90
46117;DHT22;32591;48.102;11.772;2023-04-03T11:10:15;4.30;99.90
46117;DHT22;32591;48.102;11.772;2023-04-03T11:12:49;4.40;99.90
46117;DHT22;32591;48.102;11.772;2023-04-03T11:15:30;4.50;99.90
46117;DHT22;32591;48.102;11.772;2023-04-03T11:18:02;4.40;99.90
46117;DHT22;32591;48.102;11.772;2023-04-03T11:20:35;4.40;99.90
46117;DHT22;32591;48.102;11.772;2023-04-03T11:23:06;4.50;99.90
46117;DHT22;32591;48.102;11.772;2023-04-03T11:25:41;4.50;99.90
46117;DHT22;32591;48.102;11.772;2023-04-03T11:28:13;4.50;99.90
46117;DHT22;32591;48.102;11.772;2023-04-03T11:30:45;4.40;99.90
46117;DHT22;32591;48.102;11.772;2023-04-03T11:33:25;4.30;99.90
46117;DHT22;32591;48.102;11.772;2023-04-03T11:36:05;4.40;99.90
46117;DHT22;32591;48.102;11.772;2023-04-03T11:38:37;4.50;99.90
46117;DHT22;32591;48.102;11.772;2023-04-03T11:41:09;4.50;99.90
46117;DHT22;32591;48.102;11.772;2023-04-03T11:43:41;4.50;99.90
46117;DHT22;32591;48.102;11.772;2023-04-03T11:46:09;4.60;99.90
46117;DHT22;32591;48.102;11.772;2023-04-03T11:48:49;4.70;99.90
46117;DHT22;32591;48.102;11.772;2023-04-03T11:51:42;4.80;99.90
46117;DHT22;32591;48.102;11.772;2023-04-03T11:54:47;4.80;99.90
46117;DHT22;32591;48.102;11.772;2023-04-03T11:57:47;4.80;99.90
46117;DHT22;32591;48.102;11.772;2023-04-03T12:00:54;4.80;99.90
46117;DHT22;32591;48.102;11.772;2023-04-03T12:04:02;4.80;99.90
46117;DHT22;32591;48.102;11.772;2023-04-03T12:10:14;4.80;99.90
46117;DHT22;32591;48.102;11.772;2023-04-03T12:12:58;5.00;99.90
46117;DHT22;32591;48.102;11.772;2023-04-03T12:15:52;5.30;99.90
46117;DHT22;32591;48.102;11.772;2023-04-03T12:21:11;5.60;99.90
46117;DHT22;32591;48.102;11.772;2023-04-03T12:24:00;5.60;99.90
46117;DHT22;32591;48.102;11.772;2023-04-03T12:26:32;5.60;99.90
46117;DHT22;32591;48.102;11.772;2023-04-03T12:29:13;5.70;99.90
46117;DHT22;32591;48.102;11.772;2023-04-03T12:31:55;5.80;99.90
46117;DHT22;32591;48.102;11.772;2023-04-03T12:34:37;5.80;99.90
46117;DHT22;32591;48.102;11.772;2023-04-03T12:37:21;5.80;99.90
46117;DHT22;32591;48.102;11.772;2023-04-03T12:40:09;6.00;99.90
46117;DHT22;32591;48.102;11.772;2023-04-03T12:43:02;6.10;99.90
46117;DHT22;32591;48.102;11.772;2023-04-03T12:45:41;6.10;99.90
46117;DHT22;32591;48.102;11.772;2023-04-03T12:48:15;6.10;99.90
46117;DHT22;32591;48.102;11.772;2023-04-03T12:50:45;6.00;99.90
46117;DHT22;32591;48.102;11.772;2023-04-03T12:53:16;6.10;99.90
46117;DHT22;32591;48.102;11.772;2023-04-03T12:55:46;6.10;99.90
46117;DHT22;32591;48.102;11.772;2023-04-03T12:58:14;6.30;99.90
46117;DHT22;32591;48.102;11.772;2023-04-03T13:00:59;6.50;99.60
46117;DHT22;32591;48.102;11.772;2023-04-03T13:03:27;6.60;99.90
46117;DHT22;32591;48.102;11.772;2023-04-03T13:05:59;6.60;99.30
46117;DHT22;32591;48.102;11.772;2023-04-03T13:08:27;6.60;99.40
46117;DHT22;32591;48.102;11.772;2023-04-03T13:10:59;6.60;99.40
46117;DHT22;32591;48.102;11.772;2023-04-03T13:13:28;6.60;99.00
46117;DHT22;32591;48.102;11.772;2023-04-03T13:15:56;6.60;97.90
46117;DHT22;32591;48.102;11.772;2023-04-03T13:18:26;6.60;98.00
46117;DHT22;32591;48.102;11.772;2023-04-03T13:21:02;6.60;97.00
46117;DHT22;32591;48.102;11.772;2023-04-03T13:23:30;6.80;99.50
46117;DHT22;32591;48.102;11.772;2023-04-03T13:26:00;6.90;96.90
46117;DHT22;32591;48.102;11.772;2023-04-03T13:28:30;6.80;96.90
46117;DHT22;32591;48.102;11.772;2023-04-03T13:31:07;7.20;98.10
46117;DHT22;32591;48.102;11.772;2023-04-03T13:33:50;7.80;95.10
46117;DHT22;32591;48.102;11.772;2023-04-03T13:36:22;8.00;96.00
46117;DHT22;32591;48.102;11.772;2023-04-03T13:38:59;7.90;90.80
46117;DHT22;32591;48.102;11.772;2023-04-03T13:41:32;7.70;90.80
46117;DHT22;32591;48.102;11.772;2023-04-03T13:44:23;7.50;90.70
46117;DHT22;32591;48.102;11.772;2023-04-03T13:46:55;7.20;92.50
46117;DHT22;32591;48.102;11.772;2023-04-03T13:49:30;7.10;92.40
46117;DHT22;32591;48.102;11.772;2023-04-03T13:51:59;6.90;92.30
46117;DHT22;32591;48.102;11.772;2023-04-03T13:54:31;6.90;91.80
46117;DHT22;32591;48.102;11.772;2023-04-03T13:57:01;6.80;93.50
46117;DHT22;32591;48.102;11.772;2023-04-03T13:59:31;6.70;93.60
46117;DHT22;32591;48.102;11.772;2023-04-03T14:02:13;6.70;92.80
46117;DHT22;32591;48.102;11.772;2023-04-03T14:04:50;6.70;93.30
46117;DHT22;32591;48.102;11.772;2023-04-03T14:07:22;6.60;91.90
46117;DHT22;32591;48.102;11.772;2023-04-03T14:09:50;6.50;91.10
46117;DHT22;32591;48.102;11.772;2023-04-03T14:12:26;6.40;93.90
46117;DHT22;32591;48.102;11.772;2023-04-03T14:14:54;6.30;93.50
46117;DHT22;32591;48.102;11.772;2023-04-03T14:17:23;6.30;91.40
46117;DHT22;32591;48.102;11.772;2023-04-03T14:19:53;6.30;92.30
46117;DHT22;32591;48.102;11.772;2023-04-03T14:22:22;6.20;92.50
46117;DHT22;32591;48.102;11.772;2023-04-03T14:24:51;6.20;94.00
46117;DHT22;32591;48.102;11.772;2023-04-03T14:27:21;6.30;92.60
46117;DHT22;32591;48.102;11.772;2023-04-03T14:29:50;6.30;92.20
46117;DHT22;32591;48.102;11.772;2023-04-03T14:32:20;6.40;92.40
46117;DHT22;32591;48.102;11.772;2023-04-03T14:34:49;6.40;92.70
46117;DHT22;32591;48.102;11.772;2023-04-03T14:37:20;6.40;90.70
46117;DHT22;32591;48.102;11.772;2023-04-03T14:39:50;6.50;90.30
46117;DHT22;32591;48.102;11.772;2023-04-03T14:42:22;6.60;90.50
46117;DHT22;32591;48.102;11.772;2023-04-03T14:44:51;6.60;90.50
46117;DHT22;32591;48.102;11.772;2023-04-03T14:47:21;6.60;89.90
46117;DHT22;32591;48.102;11.772;2023-04-03T14:49:50;6.60;86.80
46117;DHT22;32591;48.102;11.772;2023-04-03T14:52:19;6.60;85.20
46117;DHT22;32591;48.102;11.772;2023-04-03T14:54:48;6.50;85.10
46117;DHT22;32591;48.102;11.772;2023-04-03T14:57:17;6.50;85.70
46117;DHT22;32591;48.102;11.772;2023-04-03T14:59:46;6.60;87.90
46117;DHT22;32591;48.102;11.772;2023-04-03T15:02:27;6.70;84.30
46117;DHT22;32591;48.102;11.772;2023-04-03T15:04:56;6.70;82.00
46117;DHT22;32591;48.102;11.772;2023-04-03T15:07:26;6.80;80.10
46117;DHT22;32591;48.102;11.772;2023-04-03T15:09:54;7.00;81.20
46117;DHT22;32591;48.102;11.772;2023-04-03T15:12:22;7.50;78.80
46117;DHT22;32591;48.102;11.772;2023-04-03T15:14:50;7.80;77.20
46117;DHT22;32591;48.102;11.772;2023-04-03T15:17:20;7.60;75.50
46117;DHT22;32591;48.102;11.772;2023-04-03T15:19:48;7.40;75.00
46117;DHT22;32591;48.102;11.772;2023-04-03T15:22:17;7.20;76.90
46117;DHT22;32591;48.102;11.772;2023-04-03T15:24:45;7.10;76.10
46117;DHT22;32591;48.102;11.772;2023-04-03T15:27:13;7.00;78.00
46117;DHT22;32591;48.102;11.772;2023-04-03T15:29:42;7.00;76.50
46117;DHT22;32591;48.102;11.772;2023-04-03T15:32:11;7.20;73.60
46117;DHT22;32591;48.102;11.772;2023-04-03T15:34:39;7.30;76.00
46117;DHT22;32591;48.102;11.772;2023-04-03T15:37:06;7.70;73.10
46117;DHT22;32591;48.102;11.772;2023-04-03T15:39:33;8.00;72.70
46117;DHT22;32591;48.102;11.772;2023-04-03T15:42:00;8.40;70.80
46117;DHT22;32591;48.102;11.772;2023-04-03T15:44:31;8.80;70.20
46117;DHT22;32591;48.102;11.772;2023-04-03T15:47:01;8.80;66.80
46117;DHT22;32591;48.102;11.772;2023-04-03T15:49:30;8.40;66.00
46117;DHT22;32591;48.102;11.772;2023-04-03T15:51:58;8.30;67.30
46117;DHT22;32591;48.102;11.772;2023-04-03T15:54:25;8.20;66.90
46117;DHT22;32591;48.102;11.772;2023-04-03T15:56:52;8.50;66.50
46117;DHT22;32591;48.102;11.772;2023-04-03T15:59:19;8.70;67.00
46117;DHT22;32591;48.102;11.772;2023-04-03T16:01:47;8.60;65.60